Ackley, IA

5:58 AM CST on December 20, 2014 (GMT -0600)
Jensen Farm | Change Station
CLOSE
Current Station
Personal Weather Station
Location: Iowa Falls, IA
Elevation: 1129 ft
Nearby Weather Stations
Active Advisory: Special Statement

Elev 1129 ft 42.50 °N, 93.20 °W | Updated 30 seconds ago

Fog
Fog
28.2 °F
Feels Like 28 °F
N
2.0
Wind Variable Wind from SE
Gusts 7.0 mph

Today
High -- | Low -- °F
--% Chance of Precip.
Yesterday
High -- | Low -- °F
Precip. -- in
7:38 AM 4:41 PM
Waning Crescent, 3% visible
Pressure 30.16 in
Visibility 2.5 miles
Clouds Overcast 300 ft
Windchill 28 °F
Dew Point 26 °F
Humidity 94%
Rainfall 0.00 in
Snow Depth Not available.
UV 0 out of 12
Pollen .10 out of 12
Air Quality Not available.
Flu Activity Not available.
METAR KIFA 201135Z AUTO 14005KT 2 1/2SM BR OVC003 M01/M02 A3016 RMK AO2 T10121016

More Conditions Fewer Conditions

Pressure 30.16 in
Visibility 2.5 miles
Clouds Overcast 300 ft
Windchill 28 °F
Dew Point 26 °F
Humidity 94%
Rainfall 0.00 in
Snow Depth Not available.
UV 0 out of 12
Pollen .10 out of 12
Air Quality Not available.
Flu Activity Not available.
METAR KIFA 201135Z AUTO 14005KT 2 1/2SM BR OVC003 M01/M02 A3016 RMK AO2 T10121016

More Conditions Fewer Conditions

10-Day Weather Forecast

Almanac

Astronomy

Dec. 20, 2014 Rise Set
Actual Time
Civil Twilight
Nautical Twilight
Astronomical Twilight
Moon
Length of Visible Light
Length of Day
Tomorrow will be .
, % of the Moon is Illuminated

Today's Extremes

State Highs State Lows

Community

WunderPhotos

Upload Photos

1,779,160 photos uploaded!

WunderBlogs® & News

Nearby

Air Quality

  Air Quality AQ Index Pollutant
Not available.

Snow Depth

Station Depth Elevation

Earthquake Activity

City Distance Mag. Time & Date
Minimum magnitude displayed is 2.5.

Coastal Water Temperatures

Place Temperature

Nearby Weather Stations